National Weather Service Raw Text Product

Displaying AFOS PIL: TAFOTM Received: 2017-12-07 11:34 UTC


803 
FTUS43 KDMX 071134
TAFOTM
TAF
KOTM 071134Z 0712/0812 31012KT P6SM FEW070
     FM080000 26006KT P6SM FEW250=